Time;durP1;ratioP1;P1;durP2;ratioP2;P2;SDS_P1;SDS_P2;PMS_P1;PMS_P2;Temp;Humidity;BMP_temperature;BMP_pressure;BME280_temperature;BME280_humidity;BME280_pressure;Samples;Min_cycle;Max_cycle;Signal;HPM_P1;HPM_P2
2022/03/14 00:01:00;;;;;;;20.97;11.47;;;7.90;45.00;;;;;;5037749;28;20437;-57
2022/03/14 00:03:28;;;;;;;18.33;10.50;;;7.90;45.00;;;;;;5048491;28;20468;-54
2022/03/14 00:05:54;;;;;;;17.57;10.57;;;7.90;44.60;;;;;;5049140;28;20810;-57
2022/03/14 00:08:24;;;;;;;22.23;11.23;;;7.90;44.40;;;;;;5048028;28;20457;-57
2022/03/14 00:10:51;;;;;;;21.70;10.90;;;7.80;43.90;;;;;;5047236;28;20430;-57
2022/03/14 00:13:17;;;;;;;23.63;11.40;;;7.90;43.80;;;;;;5048353;28;20453;-58
2022/03/14 00:15:43;;;;;;;23.07;11.97;;;8.00;43.90;;;;;;5045467;28;20461;-56
2022/03/14 00:18:10;;;;;;;20.77;10.63;;;8.00;43.70;;;;;;5048133;28;20437;-57
2022/03/14 00:20:36;;;;;;;19.83;11.70;;;8.10;43.70;;;;;;5049421;28;20247;-57
2022/03/14 00:23:01;;;;;;;22.20;11.97;;;8.20;43.70;;;;;;5048490;28;20937;-57
2022/03/14 00:25:28;;;;;;;21.40;12.60;;;8.30;44.10;;;;;;5047385;28;20193;-57
2022/03/14 00:27:57;;;;;;;28.47;13.37;;;8.40;44.30;;;;;;5046267;28;20171;-57
2022/03/14 00:30:23;;;;;;;28.70;14.70;;;8.50;44.50;;;;;;5041060;28;20877;-57
2022/03/14 00:32:49;;;;;;;28.57;15.40;;;8.50;45.20;;;;;;5047934;28;20429;-58
2022/03/14 00:35:15;;;;;;;26.17;14.87;;;8.50;45.80;;;;;;5046076;28;20190;-57
2022/03/14 00:37:41;;;;;;;36.23;17.77;;;8.60;45.90;;;;;;5048673;28;20232;-57
2022/03/14 00:40:08;;;;;;;31.60;16.93;;;8.70;46.80;;;;;;5047469;28;20433;-57
2022/03/14 00:42:35;;;;;;;37.87;19.70;;;8.70;47.10;;;;;;5046061;28;20290;-56
2022/03/14 00:45:01;;;;;;;36.30;18.70;;;8.80;47.70;;;;;;5048293;28;20417;-57
2022/03/14 00:47:28;;;;;;;36.10;19.70;;;8.80;49.70;;;;;;5046982;28;20468;-57
2022/03/14 00:49:53;;;;;;;31.90;17.70;;;8.90;49.70;;;;;;5047118;28;20170;-58
2022/03/14 00:52:19;;;;;;;35.27;19.60;;;9.00;49.90;;;;;;5045671;28;20863;-57
2022/03/14 00:54:45;;;;;;;35.63;19.97;;;9.10;50.10;;;;;;5047242;28;20175;-60
2022/03/14 00:57:11;;;;;;;35.60;19.60;;;9.10;50.30;;;;;;5041528;28;20264;-57
2022/03/14 00:59:39;;;;;;;33.50;18.37;;;9.10;50.60;;;;;;5047553;28;20194;-57
2022/03/14 01:02:05;;;;;;;31.00;16.60;;;9.10;50.60;;;;;;5045625;28;20468;-56
2022/03/14 01:04:31;;;;;;;26.00;14.93;;;9.20;51.50;;;;;;5046885;28;20490;-58
2022/03/14 01:06:56;;;;;;;27.40;14.80;;;9.10;52.40;;;;;;5037513;28;20878;-57
2022/03/14 01:09:22;;;;;;;27.43;15.23;;;9.10;52.90;;;;;;5048124;28;20843;-57
2022/03/14 01:11:48;;;;;;;21.40;12.00;;;9.00;53.20;;;;;;5045684;28;20179;-58
2022/03/14 01:14:14;;;;;;;23.23;13.27;;;9.00;54.50;;;;;;5040204;28;20701;-57
2022/03/14 01:16:40;;;;;;;20.03;10.90;;;9.00;55.20;;;;;;5046017;28;20198;-56
2022/03/14 01:19:07;;;;;;;20.37;10.70;;;8.90;55.80;;;;;;5048961;28;20430;-58
2022/03/14 01:21:37;;;;;;;19.03;10.73;;;8.90;56.50;;;;;;5045969;28;20430;-58
2022/03/14 01:24:03;;;;;;;15.37;9.70;;;8.80;56.90;;;;;;5029543;28;20466;-57
2022/03/14 01:26:29;;;;;;;17.73;10.10;;;8.80;57.20;;;;;;5041452;28;20437;-57
2022/03/14 01:28:55;;;;;;;18.10;9.67;;;8.70;58.20;;;;;;5046363;28;20429;-57
2022/03/14 01:31:20;;;;;;;14.97;9.37;;;8.70;59.10;;;;;;5041615;28;20178;-58
2022/03/14 01:33:46;;;;;;;12.80;7.73;;;8.60;60.60;;;;;;5047540;28;20182;-58
2022/03/14 01:36:11;;;;;;;11.40;7.97;;;8.60;62.30;;;;;;5045322;28;20199;-57
2022/03/14 01:38:37;;;;;;;9.30;6.60;;;8.50;65.10;;;;;;5045387;28;20249;-58
2022/03/14 01:41:03;;;;;;;13.30;6.90;;;8.40;67.60;;;;;;5047983;28;20183;-57
2022/03/14 01:43:29;;;;;;;11.27;6.70;;;8.30;70.90;;;;;;5053837;28;20272;-57
2022/03/14 01:45:58;;;;;;;10.93;7.37;;;8.30;74.10;;;;;;5040191;28;20705;-57
2022/03/14 01:48:25;;;;;;;8.57;6.70;;;8.20;76.80;;;;;;5045732;28;20434;-58
2022/03/14 01:50:51;;;;;;;8.03;6.00;;;8.20;79.70;;;;;;5044032;28;21032;-56
2022/03/14 01:53:19;;;;;;;8.53;6.17;;;8.20;82.20;;;;;;5050238;28;20414;-56
2022/03/14 01:55:45;;;;;;;10.47;5.40;;;8.10;85.30;;;;;;5048801;28;20546;-58
2022/03/14 01:58:11;;;;;;;6.60;4.50;;;8.10;85.00;;;;;;5044324;28;20969;-57
2022/03/14 02:00:37;;;;;;;4.90;3.77;;;8.10;84.40;;;;;;5049884;28;20425;-59
2022/03/14 02:03:02;;;;;;;5.50;3.93;;;8.10;83.70;;;;;;5050454;28;20195;-58
2022/03/14 02:05:28;;;;;;;5.43;3.67;;;8.10;83.90;;;;;;5050152;28;20171;-58
2022/03/14 02:07:57;;;;;;;4.20;3.47;;;8.10;86.30;;;;;;5042201;28;20267;-59
2022/03/14 02:10:22;;;;;;;2.93;2.60;;;8.00;85.40;;;;;;5047562;28;20811;-57
2022/03/14 02:12:48;;;;;;;4.13;2.97;;;8.10;84.20;;;;;;5050384;28;20422;-58
2022/03/14 02:15:14;;;;;;;3.03;2.73;;;8.00;83.00;;;;;;5043355;28;20199;-57
2022/03/14 02:17:40;;;;;;;4.20;3.40;;;8.00;82.80;;;;;;5051005;28;20179;-58
2022/03/14 02:20:07;;;;;;;3.50;2.97;;;8.10;83.20;;;;;;5051133;28;20176;-58
2022/03/14 02:22:33;;;;;;;3.93;2.97;;;8.10;84.50;;;;;;5046948;28;20465;-59
2022/03/14 02:24:58;;;;;;;3.20;2.80;;;8.00;83.70;;;;;;5051359;28;20494;-58
2022/03/14 02:27:24;;;;;;;3.30;2.20;;;8.00;84.10;;;;;;5050593;28;20198;-57
2022/03/14 02:29:50;;;;;;;2.63;2.20;;;7.90;81.80;;;;;;5050571;28;20731;-58
2022/03/14 02:32:15;;;;;;;1.80;1.70;;;7.90;79.60;;;;;;5048317;28;20175;-58
2022/03/14 02:34:41;;;;;;;1.80;1.70;;;7.90;81.50;;;;;;5044337;28;20179;-58
2022/03/14 02:37:08;;;;;;;2.00;1.83;;;7.90;82.10;;;;;;5045787;28;20207;-57
2022/03/14 02:39:34;;;;;;;1.80;1.70;;;7.90;80.60;;;;;;5047374;28;20433;-58
2022/03/14 02:42:03;;;;;;;1.57;1.43;;;7.80;80.60;;;;;;5049432;28;20422;-57
2022/03/14 02:44:29;;;;;;;1.67;1.57;;;7.80;80.80;;;;;;5047065;28;20421;-57
2022/03/14 02:46:55;;;;;;;1.30;1.20;;;7.80;80.20;;;;;;5046266;28;20470;-57
2022/03/14 02:49:20;;;;;;;1.17;1.10;;;7.80;80.10;;;;;;5048084;28;20289;-58
2022/03/14 02:51:46;;;;;;;0.97;0.97;;;7.80;81.00;;;;;;5049149;28;20210;-57
2022/03/14 02:54:12;;;;;;;1.00;1.00;;;7.80;80.70;;;;;;5047762;28;20175;-58
2022/03/14 02:56:40;;;;;;;1.30;1.20;;;7.80;79.30;;;;;;5049850;28;20448;-58
2022/03/14 02:59:06;;;;;;;1.20;1.10;;;7.80;79.20;;;;;;5044756;28;20422;-57
2022/03/14 03:01:33;;;;;;;1.10;1.00;;;7.80;79.20;;;;;;5044592;28;20449;-57
2022/03/14 03:03:59;;;;;;;1.73;1.20;;;7.80;79.10;;;;;;5049042;28;21048;-58
2022/03/14 03:06:24;;;;;;;2.07;1.20;;;7.80;79.60;;;;;;5048271;28;20477;-57
2022/03/14 03:08:50;;;;;;;1.40;1.30;;;7.80;79.60;;;;;;5048472;28;20270;-57
2022/03/14 03:11:16;;;;;;;1.00;1.00;;;7.70;79.80;;;;;;5046319;28;20164;-57
2022/03/14 03:13:43;;;;;;;1.10;0.93;;;7.70;80.50;;;;;;5041949;28;20424;-57
2022/03/14 03:16:11;;;;;;;0.90;0.87;;;7.70;80.20;;;;;;5044944;28;20218;-56
2022/03/14 03:18:36;;;;;;;1.10;1.10;;;7.70;78.90;;;;;;5049159;28;20527;-58
2022/03/14 03:21:03;;;;;;;0.93;0.93;;;7.70;78.60;;;;;;5047754;28;20991;-56
2022/03/14 03:23:29;;;;;;;0.90;0.90;;;7.70;79.10;;;;;;5049253;28;20199;-58
2022/03/14 03:25:55;;;;;;;1.80;0.87;;;7.70;78.50;;;;;;5041578;28;20458;-57
2022/03/14 03:28:21;;;;;;;1.37;0.90;;;7.70;77.70;;;;;;5043933;28;20409;-58
2022/03/14 03:30:47;;;;;;;1.30;1.20;;;7.70;77.30;;;;;;5048579;28;20487;-58
2022/03/14 03:33:13;;;;;;;0.87;0.87;;;7.70;77.10;;;;;;5046354;28;20175;-58
2022/03/14 03:35:38;;;;;;;1.10;1.00;;;7.70;77.00;;;;;;5048075;28;20460;-58
2022/03/14 03:38:04;;;;;;;0.90;0.90;;;7.60;76.80;;;;;;5047961;28;20729;-57
2022/03/14 03:40:30;;;;;;;0.90;0.90;;;7.60;76.20;;;;;;5047786;28;20171;-58
2022/03/14 03:42:55;;;;;;;0.87;0.87;;;7.60;76.50;;;;;;5045566;28;21119;-57
2022/03/14 03:45:22;;;;;;;1.00;1.00;;;7.60;76.70;;;;;;5046963;28;20172;-59
2022/03/14 03:47:48;;;;;;;0.90;0.90;;;7.60;77.60;;;;;;5049271;28;20210;-57
2022/03/14 03:50:16;;;;;;;0.80;0.80;;;7.50;77.30;;;;;;5064675;28;20409;-57
2022/03/14 03:52:41;;;;;;;0.80;0.80;;;7.50;75.40;;;;;;5048581;28;20437;-58
2022/03/14 03:55:08;;;;;;;0.80;0.80;;;7.50;75.70;;;;;;5049043;28;20806;-57
2022/03/14 03:57:35;;;;;;;0.80;0.80;;;7.40;75.30;;;;;;5046093;28;20448;-58
2022/03/14 04:00:04;;;;;;;0.80;0.80;;;7.40;74.50;;;;;;5045302;28;20432;-58
2022/03/14 04:02:35;;;;;;;0.70;0.70;;;7.40;74.30;;;;;;5048331;28;20954;-58
2022/03/14 04:05:01;;;;;;;0.77;0.77;;;7.30;72.80;;;;;;5049288;28;20460;-58
2022/03/14 04:07:27;;;;;;;0.80;0.80;;;7.40;72.30;;;;;;5047783;28;20441;-58
2022/03/14 04:09:56;;;;;;;0.70;0.70;;;7.30;71.90;;;;;;5047172;28;20246;-58
2022/03/14 04:12:28;;;;;;;0.80;0.80;;;7.30;71.70;;;;;;5049364;28;20539;-58
2022/03/14 04:15:06;;;;;;;1.17;0.90;;;7.30;72.30;;;;;;5047132;28;20426;-59
2022/03/14 04:17:33;;;;;;;0.70;0.70;;;7.20;72.20;;;;;;5044926;28;20442;-58
2022/03/14 04:20:00;;;;;;;0.80;0.80;;;7.20;71.70;;;;;;5047760;28;20422;-57
2022/03/14 04:22:27;;;;;;;1.00;0.90;;;7.20;72.00;;;;;;5049023;28;20912;-57
2022/03/14 04:24:53;;;;;;;0.83;0.80;;;7.20;72.30;;;;;;5048982;28;20946;-57
2022/03/14 04:27:18;;;;;;;1.10;0.93;;;7.20;72.10;;;;;;5048564;28;20437;-57
2022/03/14 04:29:44;;;;;;;1.00;1.00;;;7.10;71.90;;;;;;5048567;28;20250;-58
2022/03/14 04:32:10;;;;;;;1.27;1.10;;;7.10;72.00;;;;;;5049498;28;20177;-57
2022/03/14 04:34:36;;;;;;;0.90;0.90;;;7.20;71.80;;;;;;5045200;28;20645;-58
2022/03/14 04:37:01;;;;;;;0.90;0.90;;;7.20;71.50;;;;;;5037754;28;20187;-58
2022/03/14 04:39:27;;;;;;;1.17;1.10;;;7.10;71.50;;;;;;5037793;28;20175;-58
2022/03/14 04:41:54;;;;;;;1.00;0.90;;;7.10;71.70;;;;;;5048467;28;20171;-56
2022/03/14 04:44:21;;;;;;;0.80;0.80;;;7.10;71.90;;;;;;5043923;28;20186;-57
2022/03/14 04:46:48;;;;;;;1.00;1.00;;;7.00;72.30;;;;;;5049358;28;20548;-57
2022/03/14 04:49:14;;;;;;;0.90;0.90;;;7.00;73.20;;;;;;5045462;28;20422;-57
2022/03/14 04:51:40;;;;;;;0.80;0.80;;;7.00;73.60;;;;;;5042264;28;20472;-57
2022/03/14 04:54:06;;;;;;;0.97;0.97;;;7.00;73.70;;;;;;5044136;28;20437;-57
2022/03/14 04:56:32;;;;;;;1.07;1.00;;;6.90;73.90;;;;;;5048893;28;20841;-57
2022/03/14 04:58:58;;;;;;;0.93;0.93;;;6.90;73.90;;;;;;5047584;28;20428;-57
2022/03/14 05:01:24;;;;;;;0.90;0.90;;;6.90;74.20;;;;;;5045790;28;20437;-58
2022/03/14 05:03:52;;;;;;;1.00;1.00;;;6.90;74.30;;;;;;5045620;28;20495;-58
2022/03/14 05:06:19;;;;;;;1.27;1.17;;;6.90;75.20;;;;;;5043973;28;20217;-57
2022/03/14 05:08:45;;;;;;;1.10;1.00;;;6.90;75.70;;;;;;5047718;28;20430;-58
2022/03/14 05:11:11;;;;;;;1.20;1.10;;;6.80;75.60;;;;;;5046147;28;20502;-57
2022/03/14 05:13:37;;;;;;;0.93;0.93;;;6.80;75.60;;;;;;5045108;28;21029;-57
2022/03/14 05:16:03;;;;;;;1.10;0.97;;;6.70;76.40;;;;;;5047679;28;20441;-57
2022/03/14 05:18:29;;;;;;;1.00;1.00;;;6.70;76.60;;;;;;5040884;28;20420;-58
2022/03/14 05:20:54;;;;;;;1.30;1.20;;;6.70;77.50;;;;;;5041939;28;20434;-57
2022/03/14 05:23:20;;;;;;;1.20;1.10;;;6.60;78.80;;;;;;5043599;28;20294;-58
2022/03/14 05:25:46;;;;;;;1.00;1.00;;;6.50;79.10;;;;;;5047484;28;20233;-58
2022/03/14 05:28:12;;;;;;;0.90;0.90;;;6.40;80.00;;;;;;5050803;28;20429;-58
2022/03/14 05:30:37;;;;;;;1.30;1.20;;;6.40;80.60;;;;;;5043932;28;20175;-58
2022/03/14 05:33:03;;;;;;;1.73;0.87;;;6.30;81.90;;;;;;5046734;28;20182;-59
2022/03/14 05:35:29;;;;;;;0.90;0.90;;;6.30;82.40;;;;;;5048220;28;20253;-58
2022/03/14 05:37:55;;;;;;;1.43;1.23;;;6.30;82.10;;;;;;5050504;28;20179;-58
2022/03/14 05:40:21;;;;;;;1.30;1.20;;;6.30;82.80;;;;;;5045785;28;20453;-58
2022/03/14 05:42:48;;;;;;;1.40;1.30;;;6.20;82.70;;;;;;5043174;28;20199;-58
2022/03/14 05:45:16;;;;;;;2.27;1.50;;;6.20;83.00;;;;;;5061806;28;20179;-58
2022/03/14 05:47:41;;;;;;;1.67;1.50;;;6.20;83.50;;;;;;5044599;28;20441;-59
2022/03/14 05:50:07;;;;;;;1.83;1.70;;;6.20;83.70;;;;;;5046993;28;20498;-59
2022/03/14 05:52:33;;;;;;;1.50;1.40;;;6.20;84.60;;;;;;5045762;28;20567;-57
2022/03/14 05:54:59;;;;;;;1.57;1.47;;;6.10;84.70;;;;;;5047443;28;20946;-59
2022/03/14 05:57:25;;;;;;;3.00;1.80;;;6.10;84.50;;;;;;5045827;28;20199;-58
2022/03/14 05:59:50;;;;;;;3.00;1.97;;;6.00;85.40;;;;;;5046553;28;20561;-58
2022/03/14 06:02:21;;;;;;;2.47;1.60;;;5.90;86.30;;;;;;5045925;28;20205;-59
2022/03/14 06:04:47;;;;;;;1.43;1.33;;;5.80;88.70;;;;;;5045462;28;20194;-58
2022/03/14 06:07:13;;;;;;;1.57;1.47;;;5.70;89.50;;;;;;5048034;28;20953;-59
2022/03/14 06:09:39;;;;;;;1.43;1.30;;;5.70;90.30;;;;;;5046598;28;20798;-59
2022/03/14 06:12:05;;;;;;;1.70;1.60;;;5.70;90.60;;;;;;5048531;28;20433;-59
2022/03/14 06:14:31;;;;;;;1.50;1.40;;;5.60;91.10;;;;;;5042010;28;20194;-58
2022/03/14 06:16:57;;;;;;;1.30;1.20;;;5.60;91.30;;;;;;5046366;28;20453;-58
2022/03/14 06:19:23;;;;;;;1.40;1.30;;;5.70;90.80;;;;;;5045728;28;20738;-58
2022/03/14 06:21:50;;;;;;;1.83;1.73;;;5.70;90.00;;;;;;5045460;28;20183;-60
2022/03/14 06:24:16;;;;;;;2.37;1.83;;;5.80;89.90;;;;;;5046914;28;20469;-60
2022/03/14 06:26:43;;;;;;;2.13;1.80;;;5.80;89.20;;;;;;5047543;28;20451;-59
2022/03/14 06:29:09;;;;;;;4.50;2.37;;;5.80;89.20;;;;;;5042813;28;20434;-60
2022/03/14 06:31:34;;;;;;;3.60;1.90;;;5.80;90.00;;;;;;5046552;28;20432;-60
2022/03/14 06:34:01;;;;;;;1.43;1.33;;;5.80;90.60;;;;;;5042017;28;20240;-59
2022/03/14 06:36:29;;;;;;;1.60;1.50;;;5.80;91.10;;;;;;5046932;28;20199;-59
2022/03/14 06:38:59;;;;;;;1.30;1.20;;;5.80;90.50;;;;;;5047996;28;20957;-59
2022/03/14 06:41:26;;;;;;;2.83;2.10;;;5.90;90.40;;;;;;5050360;28;20517;-60
2022/03/14 06:43:53;;;;;;;1.53;1.43;;;5.90;90.20;;;;;;5045876;28;20465;-58
2022/03/14 06:46:19;;;;;;;2.53;1.57;;;6.00;87.70;;;;;;5044594;28;20493;-60
2022/03/14 06:48:46;;;;;;;3.40;1.80;;;6.00;85.80;;;;;;5048790;28;20792;-59
2022/03/14 06:51:12;;;;;;;1.50;1.40;;;6.00;86.20;;;;;;5046165;28;20461;-60
2022/03/14 06:53:38;;;;;;;6.23;1.90;;;6.00;85.30;;;;;;5045205;28;20473;-60
2022/03/14 06:56:04;;;;;;;2.00;1.77;;;6.00;84.50;;;;;;5048154;28;20441;-59
2022/03/14 06:58:30;;;;;;;1.63;1.53;;;5.90;84.80;;;;;;5040215;28;20191;-59
2022/03/14 07:00:57;;;;;;;3.33;1.67;;;5.90;85.60;;;;;;5041219;28;20526;-59
2022/03/14 07:03:23;;;;;;;1.50;1.40;;;5.90;86.30;;;;;;5044242;28;20453;-59
2022/03/14 07:05:49;;;;;;;2.03;1.60;;;6.00;87.30;;;;;;5060228;28;20482;-59
2022/03/14 07:08:17;;;;;;;1.20;1.20;;;6.00;86.50;;;;;;5045904;28;20465;-58
2022/03/14 07:10:43;;;;;;;1.17;1.17;;;6.00;85.20;;;;;;5045324;28;20454;-58
2022/03/14 07:13:09;;;;;;;1.80;1.20;;;6.10;83.70;;;;;;5044194;28;20442;-59
2022/03/14 07:15:34;;;;;;;1.10;1.10;;;6.20;81.40;;;;;;5044240;28;20196;-58
2022/03/14 07:18:00;;;;;;;2.27;1.47;;;6.30;80.20;;;;;;5044954;28;20749;-58
2022/03/14 07:20:26;;;;;;;1.17;1.10;;;6.40;78.80;;;;;;5060367;28;20171;-59
2022/03/14 07:22:52;;;;;;;1.30;1.20;;;6.50;75.80;;;;;;5044899;28;20237;-59
2022/03/14 07:25:28;;;;;;;1.07;1.07;;;6.60;75.60;;;;;;5041337;28;20663;-59
2022/03/14 07:27:55;;;;;;;1.63;1.10;;;6.70;74.50;;;;;;5044717;28;20171;-59
2022/03/14 07:30:22;;;;;;;1.17;1.10;;;6.80;72.90;;;;;;5045249;28;20816;-59
2022/03/14 07:32:48;;;;;;;1.37;1.27;;;6.80;71.90;;;;;;5045580;28;20442;-59
2022/03/14 07:35:14;;;;;;;1.23;1.13;;;6.80;71.60;;;;;;5046744;28;20516;-60
2022/03/14 07:37:40;;;;;;;2.13;1.27;;;6.80;69.30;;;;;;5044587;28;20182;-61
2022/03/14 07:40:08;;;;;;;2.87;1.20;;;6.80;70.30;;;;;;5047474;28;20425;-59
2022/03/14 07:42:42;;;;;;;2.23;1.10;;;6.90;70.50;;;;;;5062536;28;20476;-60
2022/03/14 07:45:09;;;;;;;3.03;1.70;;;6.90;70.10;;;;;;5043839;28;20433;-58
2022/03/14 07:47:34;;;;;;;1.20;1.10;;;7.00;70.70;;;;;;5048014;28;20473;-60
2022/03/14 07:50:00;;;;;;;1.27;1.00;;;7.10;69.00;;;;;;5040129;28;20420;-57
2022/03/14 07:52:26;;;;;;;1.87;1.50;;;7.20;68.10;;;;;;5039930;28;20215;-61
2022/03/14 07:54:51;;;;;;;1.83;1.50;;;7.20;67.10;;;;;;5042823;28;20251;-60
2022/03/14 07:57:17;;;;;;;1.33;1.23;;;7.30;66.90;;;;;;5042890;28;20587;-61
2022/03/14 07:59:46;;;;;;;3.03;1.10;;;7.40;65.70;;;;;;5046014;28;20194;-61
2022/03/14 08:02:12;;;;;;;2.17;1.10;;;7.60;65.50;;;;;;5042670;28;20249;-61
2022/03/14 08:04:39;;;;;;;1.20;1.10;;;7.70;64.60;;;;;;5046130;28;20997;-63
2022/03/14 08:07:05;;;;;;;3.47;1.10;;;7.90;64.50;;;;;;5042181;28;20460;-60
2022/03/14 08:09:32;;;;;;;2.50;1.20;;;8.00;62.70;;;;;;5049421;28;20441;-61
2022/03/14 08:12:00;;;;;;;1.77;1.30;;;8.00;61.60;;;;;;5048876;28;20870;-60
2022/03/14 08:14:27;;;;;;;1.30;1.20;;;8.00;61.80;;;;;;5040876;28;20445;-60
2022/03/14 08:16:53;;;;;;;1.63;1.20;;;8.00;61.40;;;;;;5058530;28;20620;-60
2022/03/14 08:19:20;;;;;;;1.27;1.13;;;8.00;61.20;;;;;;5042546;28;20441;-60
2022/03/14 08:21:49;;;;;;;2.13;1.43;;;8.10;61.00;;;;;;5042806;28;20882;-61
2022/03/14 08:24:15;;;;;;;0.90;0.90;;;8.10;61.10;;;;;;5041293;28;20499;-61
2022/03/14 08:26:42;;;;;;;4.17;1.47;;;8.20;60.70;;;;;;5040812;28;20481;-60
2022/03/14 08:29:08;;;;;;;2.00;1.40;;;8.20;60.30;;;;;;5040861;28;20482;-61
2022/03/14 08:31:34;;;;;;;1.20;0.80;;;8.20;60.00;;;;;;5040224;28;20943;-61
2022/03/14 08:34:00;;;;;;;0.70;0.70;;;8.10;59.20;;;;;;5040019;28;20299;-61
2022/03/14 08:36:27;;;;;;;0.83;0.80;;;8.10;58.70;;;;;;5045259;28;20464;-61
2022/03/14 08:38:53;;;;;;;1.20;1.10;;;8.00;58.70;;;;;;5048045;28;20540;-60
2022/03/14 08:41:19;;;;;;;1.63;1.00;;;8.10;59.00;;;;;;5045762;28;20433;-59
2022/03/14 08:43:46;;;;;;;3.27;0.97;;;8.20;59.40;;;;;;5044949;28;20505;-59
2022/03/14 08:46:14;;;;;;;1.20;1.10;;;8.30;59.00;;;;;;5042882;28;20844;-60
2022/03/14 08:48:40;;;;;;;3.13;1.40;;;8.40;57.90;;;;;;5039525;28;21171;-60
2022/03/14 08:51:06;;;;;;;7.30;1.30;;;8.40;57.60;;;;;;5041145;28;20529;-61
2022/03/14 08:53:32;;;;;;;3.17;1.20;;;8.40;57.60;;;;;;5045609;28;20503;-61
2022/03/14 08:56:00;;;;;;;1.87;1.40;;;8.40;57.30;;;;;;5043531;28;21010;-61
2022/03/14 08:58:26;;;;;;;3.50;1.67;;;8.40;56.60;;;;;;5038549;28;20183;-62
2022/03/14 09:00:52;;;;;;;1.60;1.00;;;8.30;56.50;;;;;;5046019;28;20451;-61
2022/03/14 09:03:17;;;;;;;6.87;1.57;;;8.20;56.40;;;;;;5047385;28;20264;-61
2022/03/14 09:05:43;;;;;;;2.00;1.00;;;8.10;56.60;;;;;;5049544;28;20307;-61
2022/03/14 09:08:09;;;;;;;2.30;1.73;;;8.10;56.70;;;;;;5048125;28;20214;-60
2022/03/14 09:10:37;;;;;;;6.57;2.70;;;8.10;56.40;;;;;;5049361;28;20620;-61
2022/03/14 09:13:04;;;;;;;1.50;1.40;;;8.20;57.10;;;;;;5050097;28;20194;-60
2022/03/14 09:15:30;;;;;;;2.97;1.20;;;8.30;56.50;;;;;;5055594;28;20436;-61
2022/03/14 09:17:59;;;;;;;1.87;1.37;;;8.50;56.10;;;;;;5052527;28;20520;-62
2022/03/14 09:20:28;;;;;;;3.70;1.20;;;8.70;55.20;;;;;;5048844;28;20441;-60
2022/03/14 09:22:54;;;;;;;1.10;1.10;;;8.90;54.40;;;;;;5040703;28;20465;-61
2022/03/14 09:25:21;;;;;;;1.43;1.27;;;9.00;54.40;;;;;;5041563;28;20479;-61
2022/03/14 09:27:48;;;;;;;2.70;1.27;;;9.10;53.60;;;;;;5045983;28;20455;-60
2022/03/14 09:30:15;;;;;;;4.83;1.60;;;9.20;53.80;;;;;;5042053;28;20842;-61
2022/03/14 09:32:41;;;;;;;2.70;1.30;;;9.40;53.50;;;;;;5046911;28;20511;-61
2022/03/14 09:35:09;;;;;;;2.73;1.23;;;9.50;52.80;;;;;;5043826;28;20433;-61
2022/03/14 09:37:36;;;;;;;2.53;1.47;;;9.40;51.80;;;;;;5043292;28;20847;-62
2022/03/14 09:40:17;;;;;;;4.23;1.93;;;9.50;52.10;;;;;;5043476;28;20937;-61
2022/03/14 09:42:44;;;;;;;1.93;1.20;;;9.60;52.20;;;;;;5044732;28;20457;-61
2022/03/14 09:45:11;;;;;;;1.20;1.10;;;9.70;52.40;;;;;;5047073;28;20433;-61
2022/03/14 09:47:40;;;;;;;2.10;1.20;;;9.80;53.00;;;;;;5063165;28;20456;-60
2022/03/14 09:50:15;;;;;;;2.33;1.20;;;9.90;51.50;;;;;;5042252;28;20903;-62
2022/03/14 09:52:42;;;;;;;3.13;1.30;;;10.10;50.50;;;;;;5050597;28;20443;-61
2022/03/14 09:55:10;;;;;;;2.30;1.40;;;10.20;49.90;;;;;;5050512;28;20856;-61
2022/03/14 09:57:37;;;;;;;5.17;1.30;;;10.30;50.70;;;;;;5050592;28;20949;-61
2022/03/14 10:00:13;;;;;;;2.40;1.50;;;10.40;50.60;;;;;;5047277;28;20434;-60
2022/03/14 10:02:39;;;;;;;3.33;1.10;;;10.60;50.70;;;;;;5050881;28;20502;-60
2022/03/14 10:05:09;;;;;;;2.60;1.33;;;10.80;50.60;;;;;;5047066;28;20434;-61
2022/03/14 10:07:36;;;;;;;2.80;1.30;;;10.90;49.50;;;;;;5038718;28;20457;-62
2022/03/14 10:10:06;;;;;;;5.50;1.60;;;10.90;48.30;;;;;;5035848;28;20440;-63
2022/03/14 10:12:32;;;;;;;3.70;1.90;;;11.00;49.10;;;;;;5036758;28;21284;-60
2022/03/14 10:15:00;;;;;;;3.33;1.77;;;11.10;48.90;;;;;;5039612;28;20860;-60
2022/03/14 10:17:27;;;;;;;2.03;1.27;;;11.30;48.90;;;;;;5041400;28;20468;-61
2022/03/14 10:19:54;;;;;;;11.50;1.50;;;11.50;48.10;;;;;;5036358;28;20548;-61
2022/03/14 10:22:20;;;;;;;4.40;1.70;;;11.60;48.30;;;;;;5040568;28;20516;-61
2022/03/14 10:24:47;;;;;;;1.30;1.20;;;11.80;48.00;;;;;;5039926;28;20437;-61
2022/03/14 10:27:18;;;;;;;2.70;1.53;;;11.90;47.20;;;;;;5042552;28;20209;-61
2022/03/14 10:29:46;;;;;;;1.77;1.33;;;12.10;47.00;;;;;;5036989;28;21614;-61
2022/03/14 10:32:30;;;;;;;3.47;1.40;;;12.20;46.20;;;;;;5042414;28;20528;-61
2022/03/14 10:35:01;;;;;;;1.73;1.33;;;12.30;45.40;;;;;;5039855;28;20437;-61
2022/03/14 10:37:31;;;;;;;1.50;1.20;;;12.30;45.30;;;;;;5042213;28;20457;-61
2022/03/14 10:40:06;;;;;;;8.53;1.33;;;12.20;44.00;;;;;;5041045;28;20442;-62
2022/03/14 10:42:42;;;;;;;3.80;1.40;;;12.00;43.40;;;;;;5037905;28;20495;-61
2022/03/14 10:45:11;;;;;;;6.23;1.50;;;11.80;44.20;;;;;;5038377;28;20464;-61
2022/03/14 10:47:42;;;;;;;3.10;1.40;;;11.70;44.60;;;;;;5038591;28;20473;-59
2022/03/14 10:50:09;;;;;;;2.87;1.30;;;11.80;45.30;;;;;;5038947;28;20434;-61
2022/03/14 10:52:34;;;;;;;2.03;1.43;;;12.00;46.10;;;;;;5039287;28;20441;-61
2022/03/14 10:55:09;;;;;;;2.73;1.20;;;12.20;46.20;;;;;;5032830;28;21191;-61
2022/03/14 10:57:35;;;;;;;4.27;1.50;;;12.60;46.40;;;;;;5037072;28;20559;-61
2022/03/14 11:00:02;;;;;;;2.10;1.30;;;12.90;45.90;;;;;;5035329;28;20446;-61
2022/03/14 11:02:28;;;;;;;3.10;1.57;;;13.20;45.00;;;;;;5037705;28;20294;-61
2022/03/14 11:04:59;;;;;;;1.80;1.17;;;13.50;44.20;;;;;;5042070;28;20429;-60
2022/03/14 11:07:31;;;;;;;3.10;1.70;;;13.70;42.90;;;;;;5039413;28;20458;-61
2022/03/14 11:09:59;;;;;;;1.83;1.50;;;13.60;41.00;;;;;;5035136;28;20432;-60
2022/03/14 11:12:29;;;;;;;2.20;1.67;;;13.50;41.40;;;;;;5037045;28;20553;-60
2022/03/14 11:14:59;;;;;;;1.60;1.27;;;13.50;40.90;;;;;;5036713;28;20517;-61
2022/03/14 11:17:30;;;;;;;6.87;1.80;;;13.60;40.80;;;;;;5034943;28;20456;-61
2022/03/14 11:20:01;;;;;;;2.17;1.40;;;13.70;40.70;;;;;;5036266;28;20491;-62
2022/03/14 11:22:29;;;;;;;1.90;1.37;;;13.80;40.50;;;;;;5038801;28;20449;-59
2022/03/14 11:24:57;;;;;;;3.10;1.30;;;13.90;40.20;;;;;;5039460;28;20442;-57
2022/03/14 11:27:32;;;;;;;2.73;1.30;;;14.10;40.80;;;;;;5039233;28;20449;-57
2022/03/14 11:30:06;;;;;;;2.40;1.60;;;14.50;40.70;;;;;;5039315;28;20543;-59
2022/03/14 11:32:33;;;;;;;2.27;1.30;;;14.70;37.90;;;;;;5055059;28;20512;-60
2022/03/14 11:35:01;;;;;;;5.80;1.50;;;14.80;37.50;;;;;;5033236;28;21359;-59
2022/03/14 11:37:29;;;;;;;1.90;1.23;;;14.70;36.60;;;;;;5036269;28;21020;-59
2022/03/14 11:39:57;;;;;;;4.50;1.50;;;14.90;38.10;;;;;;5037973;28;21129;-60
2022/03/14 11:42:23;;;;;;;2.63;1.70;;;15.20;36.70;;;;;;5039493;28;20433;-61
2022/03/14 11:44:50;;;;;;;2.80;1.73;;;15.50;37.20;;;;;;5037449;28;20442;-61
2022/03/14 11:47:18;;;;;;;6.57;1.47;;;15.80;36.60;;;;;;5034652;28;20230;-60
2022/03/14 11:49:45;;;;;;;3.17;1.40;;;16.00;36.00;;;;;;5037899;28;20437;-60
2022/03/14 11:52:19;;;;;;;4.27;1.20;;;16.10;35.60;;;;;;5039779;28;20460;-61
2022/03/14 11:54:53;;;;;;;3.23;1.20;;;16.20;36.20;;;;;;5040268;28;20556;-61
2022/03/14 11:57:33;;;;;;;3.10;1.23;;;16.30;34.60;;;;;;5017104;28;20493;-61
2022/03/14 12:00:20;;;;;;;4.97;1.30;;;16.40;35.70;;;;;;5036168;28;20454;-61
2022/03/14 12:02:46;;;;;;;5.50;1.50;;;16.60;34.70;;;;;;5048481;28;20461;-62
2022/03/14 12:05:12;;;;;;;1.90;1.30;;;16.80;34.50;;;;;;5034065;28;20460;-62
2022/03/14 12:07:37;;;;;;;1.90;1.37;;;17.00;33.80;;;;;;5037853;28;20662;-62
2022/03/14 12:10:25;;;;;;;6.23;1.90;;;17.10;34.00;;;;;;5040843;28;20265;-62
2022/03/14 12:12:53;;;;;;;3.13;1.20;;;17.40;33.90;;;;;;5035316;28;20175;-61
2022/03/14 12:15:37;;;;;;;2.57;1.30;;;17.20;32.20;;;;;;5033002;28;20441;-60
2022/03/14 12:18:22;;;;;;;4.30;1.10;;;17.30;33.00;;;;;;5047819;28;20437;-61
2022/03/14 12:20:49;;;;;;;2.37;1.20;;;17.50;33.00;;;;;;5050596;28;20953;-61
2022/03/14 12:23:29;;;;;;;3.13;1.10;;;17.60;32.60;;;;;;5035460;28;20468;-61
2022/03/14 12:25:57;;;;;;;1.73;1.13;;;17.70;31.20;;;;;;5039493;28;20452;-61
2022/03/14 12:28:32;;;;;;;2.63;1.30;;;17.50;30.90;;;;;;5035352;28;20507;-61
2022/03/14 12:31:04;;;;;;;3.87;1.40;;;17.50;31.50;;;;;;5044804;28;20913;-61
2022/03/14 12:33:35;;;;;;;3.90;1.57;;;17.50;31.20;;;;;;5037752;28;20468;-61
2022/03/14 12:36:19;;;;;;;1.70;1.30;;;17.60;31.60;;;;;;5039357;28;20452;-61
2022/03/14 12:39:12;;;;;;;3.47;1.43;;;17.70;32.00;;;;;;5037081;28;20499;-61
2022/03/14 12:41:40;;;;;;;1.47;1.13;;;17.70;30.20;;;;;;5037741;28;20433;-61
2022/03/14 12:44:25;;;;;;;2.50;1.20;;;17.50;30.70;;;;;;5038041;28;20807;-61
2022/03/14 12:47:01;;;;;;;4.10;1.30;;;17.60;31.70;;;;;;5036112;28;20461;-61
2022/03/14 12:49:50;;;;;;;3.27;1.43;;;17.70;32.30;;;;;;5037036;28;20511;-61
2022/03/14 12:52:19;;;;;;;3.40;1.20;;;17.80;31.40;;;;;;5033276;28;20432;-62
2022/03/14 12:54:46;;;;;;;3.60;1.00;;;17.80;31.70;;;;;;5038149;28;20444;-61